Time;durP1;ratioP1;P1;durP2;ratioP2;P2;SDS_P1;SDS_P2;PMS_P1;PMS_P2;Temp;Humidity;BMP_temperature;BMP_pressure;BME280_temperature;BME280_humidity;BME280_pressure;Samples;Min_cycle;Max_cycle;Signal;HPM_P1;HPM_P2
2022/11/06 00:02:04;;;;;;;1.30;0.62;;;;;;;13.43;67.25;99865.41;4364826;32;33011;-91
2022/11/06 00:04:52;;;;;;;0.73;0.73;;;;;;;13.21;68.19;99875.44;4353190;32;32273;-91
2022/11/06 00:07:35;;;;;;;0.50;0.47;;;;;;;13.23;67.96;99879.75;4368450;32;32839;-93
2022/11/06 00:10:29;;;;;;;0.30;0.30;;;;;;;13.03;68.50;99883.41;4337716;33;33292;-91
2022/11/06 00:13:17;;;;;;;0.95;0.82;;;;;;;13.19;68.40;99878.16;4354816;32;32752;-92
2022/11/06 00:15:46;;;;;;;0.25;0.25;;;;;;;13.18;68.21;99873.81;4345474;33;32907;-92
2022/11/06 00:18:14;;;;;;;0.30;0.30;;;;;;;13.31;67.84;99882.00;4345022;33;33799;-92
2022/11/06 00:20:42;;;;;;;0.32;0.32;;;;;;;13.44;67.11;99879.56;4357222;32;33388;-92
2022/11/06 00:23:11;;;;;;;1.45;1.08;;;;;;;13.24;67.62;99881.44;4357210;32;32612;-92
2022/11/06 00:25:40;;;;;;;1.10;0.85;;;;;;;13.24;67.45;99881.44;4344710;33;33330;-92
2022/11/06 00:28:14;;;;;;;0.82;0.73;;;;;;;13.27;67.75;99881.28;4356899;32;34700;-93
2022/11/06 00:31:28;;;;;;;1.80;1.15;;;;;;;13.28;67.72;99883.00;4329451;33;35350;-92
2022/11/06 00:34:19;;;;;;;0.10;0.10;;;;;;;13.08;68.54;99886.69;4368318;32;32475;-91
2022/11/06 00:37:10;;;;;;;1.25;1.08;;;;;;;13.27;68.05;99880.44;4334403;32;32363;-94
2022/11/06 00:39:50;;;;;;;0.85;0.85;;;;;;;13.27;68.15;99876.00;4385079;32;33642;-89
2022/11/06 00:42:19;;;;;;;1.90;1.27;;;;;;;13.29;67.81;99883.84;4380317;32;32516;-89
2022/11/06 00:44:48;;;;;;;1.05;0.62;;;;;;;13.45;67.03;99879.47;4379858;32;33640;-89
2022/11/06 00:47:16;;;;;;;3.28;0.47;;;;;;;13.16;68.15;99875.69;4382224;32;33145;-90
2022/11/06 00:49:49;;;;;;;0.20;0.20;;;;;;;13.43;67.40;99877.81;4386883;32;33018;-90
2022/11/06 00:52:29;;;;;;;0.45;0.45;;;;;;;13.49;67.15;99878.34;4352362;32;31962;-90
2022/11/06 00:55:10;;;;;;;0.20;0.20;;;;;;;13.60;66.68;99871.59;4389770;32;33102;-89
2022/11/06 00:57:39;;;;;;;0.17;0.17;;;;;;;13.31;67.50;99871.41;4388265;32;33933;-88
2022/11/06 01:00:10;;;;;;;1.00;0.93;;;;;;;13.26;67.75;99876.09;4379142;32;34586;-88
2022/11/06 01:02:38;;;;;;;0.32;0.32;;;;;;;13.33;67.74;99880.09;4388244;32;33344;-88
2022/11/06 01:05:06;;;;;;;0.62;0.55;;;;;;;13.23;68.40;99879.75;4373433;32;32719;-87
2022/11/06 01:07:37;;;;;;;4.95;1.35;;;;;;;13.58;66.81;99877.84;4381653;32;33172;-88
2022/11/06 01:10:06;;;;;;;0.52;0.37;;;;;;;13.49;66.97;99881.00;4379356;32;32467;-88
2022/11/06 01:12:34;;;;;;;0.30;0.30;;;;;;;13.19;67.80;99885.25;4372332;32;32263;-88
2022/11/06 01:15:02;;;;;;;0.55;0.55;;;;;;;13.38;67.15;99887.81;4368134;32;32926;-90
2022/11/06 01:17:30;;;;;;;0.22;0.22;;;;;;;13.31;67.72;99889.94;4380788;32;33145;-89
2022/11/06 01:19:58;;;;;;;0.20;0.20;;;;;;;13.37;67.60;99894.06;4368331;32;32276;-90
2022/11/06 01:22:28;;;;;;;1.42;1.33;;;;;;;13.36;67.64;99889.72;4368414;32;32674;-88
2022/11/06 01:24:56;;;;;;;0.95;0.28;;;;;;;13.45;67.51;99889.22;4374295;32;34594;-88
2022/11/06 01:27:24;;;;;;;0.60;0.55;;;;;;;13.38;67.88;99893.13;4382917;32;32909;-90
2022/11/06 01:29:54;;;;;;;0.00;0.00;;;;;;;13.38;67.74;99893.13;4375324;32;33598;-91
2022/11/06 01:32:31;;;;;;;2.15;0.90;;;;;;;13.61;67.04;99886.56;4380230;32;33385;-90
2022/11/06 01:34:59;;;;;;;1.20;0.62;;;;;;;13.28;68.07;99890.09;4371045;32;32656;-89
2022/11/06 01:37:27;;;;;;;0.50;0.50;;;;;;;13.64;67.05;99886.41;4386663;32;33274;-88
2022/11/06 01:39:55;;;;;;;0.45;0.45;;;;;;;13.57;66.92;99886.72;4395070;32;33584;-88
2022/11/06 01:42:23;;;;;;;1.90;0.43;;;;;;;13.44;67.62;99888.38;4386710;32;33938;-90
2022/11/06 01:45:28;;;;;;;1.08;0.28;;;;;;;13.55;67.42;99891.28;4374473;32;32836;-90
2022/11/06 01:48:00;;;;;;;0.52;0.52;;;;;;;13.42;67.80;99884.91;4392605;32;35021;-89
2022/11/06 01:50:28;;;;;;;2.28;1.40;;;;;;;13.28;68.15;99884.81;4374717;32;33000;-89
2022/11/06 01:52:59;;;;;;;0.30;0.30;;;;;;;13.33;68.02;99888.06;4385753;32;32694;-89
2022/11/06 01:55:31;;;;;;;1.00;0.30;;;;;;;13.33;67.89;99888.91;4378486;32;33995;-89
2022/11/06 01:58:05;;;;;;;2.60;1.10;;;;;;;13.26;68.45;99897.31;4386197;32;33404;-88
2022/11/06 02:00:33;;;;;;;1.00;0.77;;;;;;;13.64;66.79;99889.06;4386719;32;33794;-88
2022/11/06 02:03:03;;;;;;;0.17;0.17;;;;;;;13.53;67.17;99895.81;4360863;32;32485;-89
2022/11/06 02:05:32;;;;;;;0.70;0.60;;;;;;;13.37;67.79;99891.41;4373284;32;33667;-85
2022/11/06 02:08:02;;;;;;;0.30;0.30;;;;;;;13.60;67.16;99895.47;4390356;32;33982;-85
2022/11/06 02:10:31;;;;;;;1.00;0.35;;;;;;;13.37;67.71;99902.03;4386262;32;33889;-84
2022/11/06 02:13:16;;;;;;;2.53;1.40;;;;;;;13.47;67.68;99896.13;4385668;32;33629;-85
2022/11/06 02:15:47;;;;;;;0.32;0.32;;;;;;;13.37;67.89;99891.41;4398398;32;34647;-85
2022/11/06 02:18:15;;;;;;;0.70;0.60;;;;;;;13.13;69.05;99906.81;4397370;32;34799;-85
2022/11/06 02:21:06;;;;;;;0.32;0.32;;;;;;;13.33;68.39;99896.03;4383814;32;34477;-85
2022/11/06 02:24:01;;;;;;;0.65;0.52;;;;;;;13.13;68.75;99898.84;4370963;32;33843;-86
2022/11/06 02:26:51;;;;;;;0.22;0.22;;;;;;;13.21;68.79;99907.25;4374238;32;32823;-88
2022/11/06 02:29:22;;;;;;;0.30;0.30;;;;;;;13.25;68.66;99914.16;4387294;32;32894;-86
2022/11/06 02:31:51;;;;;;;0.50;0.50;;;;;;;13.11;68.84;99911.34;4390144;32;32902;-85
2022/11/06 02:34:23;;;;;;;0.88;0.88;;;;;;;13.22;68.44;99914.31;4384333;32;33918;-86
2022/11/06 02:36:59;;;;;;;2.47;1.08;;;;;;;13.41;67.80;99908.87;4388660;32;33644;-86
2022/11/06 02:39:29;;;;;;;0.62;0.62;;;;;;;13.09;68.98;99914.06;4373938;32;33870;-86
2022/11/06 02:41:58;;;;;;;0.50;0.50;;;;;;;13.25;68.48;99924.75;4386868;32;33038;-86
2022/11/06 02:44:29;;;;;;;0.80;0.68;;;;;;;13.32;68.03;99920.84;4397867;32;33493;-86
2022/11/06 02:47:00;;;;;;;1.00;1.00;;;;;;;13.35;67.68;99931.28;4386255;32;33530;-85
2022/11/06 02:49:36;;;;;;;0.98;0.93;;;;;;;13.41;67.80;99930.94;4385099;32;34781;-85
2022/11/06 02:52:07;;;;;;;0.47;0.47;;;;;;;13.37;67.97;99936.50;4394511;32;34106;-85
2022/11/06 02:54:38;;;;;;;2.20;0.85;;;;;;;13.52;67.39;99933.03;4381991;32;33156;-87
2022/11/06 02:57:09;;;;;;;0.73;0.25;;;;;;;13.36;67.68;99934.78;4370171;32;33031;-88
2022/11/06 02:59:44;;;;;;;0.20;0.20;;;;;;;13.55;67.33;99925.75;4385023;32;33334;-88
2022/11/06 03:02:20;;;;;;;3.87;1.05;;;;;;;13.41;67.90;99938.91;4385855;32;32828;-87
2022/11/06 03:04:59;;;;;;;0.20;0.20;;;;;;;13.48;67.31;99937.66;4371927;32;32914;-86
2022/11/06 03:07:37;;;;;;;0.13;0.13;;;;;;;13.34;67.93;99945.50;4391010;32;33816;-86
2022/11/06 03:10:06;;;;;;;1.75;1.33;;;;;;;13.13;68.89;99941.25;4385421;32;33476;-86
2022/11/06 03:12:50;;;;;;;0.98;0.98;;;;;;;13.48;67.50;99939.44;4370302;32;33587;-87
2022/11/06 03:15:26;;;;;;;0.57;0.57;;;;;;;13.30;67.67;99943.94;4384983;32;34130;-86
2022/11/06 03:17:57;;;;;;;0.85;0.85;;;;;;;13.19;68.84;99947.09;4372868;32;32516;-86
2022/11/06 03:20:35;;;;;;;0.03;0.03;;;;;;;13.11;68.98;99948.47;4371287;32;33383;-86
2022/11/06 03:23:14;;;;;;;0.30;0.30;;;;;;;13.14;69.00;99948.28;4379204;32;33377;-85
2022/11/06 03:25:49;;;;;;;1.05;0.95;;;;;;;13.19;68.67;99956.84;4387303;32;32576;-86
2022/11/06 03:28:35;;;;;;;1.70;1.60;;;;;;;13.20;69.01;99955.94;4359246;32;32473;-82
2022/11/06 03:31:11;;;;;;;0.80;0.80;;;;;;;13.11;69.01;99959.06;4382498;32;34320;-82
2022/11/06 03:33:44;;;;;;;0.73;0.68;;;;;;;13.22;68.66;99959.38;4382435;32;33976;-82
2022/11/06 03:36:17;;;;;;;5.95;1.37;;;;;;;13.14;68.98;99959.72;4396333;32;33702;-82
2022/11/06 03:38:49;;;;;;;0.30;0.30;;;;;;;13.13;68.55;99965.97;4378353;32;35202;-83
2022/11/06 03:41:30;;;;;;;0.80;0.80;;;;;;;13.26;68.16;99974.19;4388616;32;34199;-83
2022/11/06 03:43:59;;;;;;;0.70;0.70;;;;;;;13.41;67.75;99973.38;4366298;32;34443;-83
2022/11/06 03:46:29;;;;;;;0.10;0.10;;;;;;;13.14;68.67;99972.13;4399983;32;34168;-83
2022/11/06 03:49:06;;;;;;;0.30;0.30;;;;;;;13.17;68.55;99972.00;4392192;32;32865;-83
2022/11/06 03:51:46;;;;;;;1.12;1.08;;;;;;;13.14;68.81;99974.78;4384020;32;33120;-82
2022/11/06 03:54:25;;;;;;;0.22;0.22;;;;;;;13.35;68.08;99976.38;4392703;32;33001;-82
2022/11/06 03:57:00;;;;;;;3.10;0.65;;;;;;;13.24;68.67;99973.41;4385523;32;33347;-83
2022/11/06 03:59:33;;;;;;;0.32;0.28;;;;;;;13.24;68.60;99982.22;4396279;32;34638;-83
2022/11/06 04:02:01;;;;;;;1.15;1.00;;;;;;;13.35;67.92;99975.53;4398160;32;33688;-83
2022/11/06 04:04:37;;;;;;;0.37;0.37;;;;;;;13.13;68.90;99978.37;4375513;32;33513;-83
2022/11/06 04:07:10;;;;;;;2.47;2.28;;;;;;;13.15;68.97;99981.78;4373443;32;33187;-83
2022/11/06 04:15:18;;;;;;;0.52;0.52;;;;;;;13.24;68.35;99984.00;4399112;32;33003;-83
2022/11/06 04:17:46;;;;;;;2.55;0.80;;;;;;;13.24;68.29;99986.66;4391608;32;34266;-83
2022/11/06 04:23:33;;;;;;;0.73;0.65;;;;;;;13.53;67.43;99983.38;4382025;32;33733;-83
2022/11/06 04:26:38;;;;;;;0.55;0.55;;;;;;;13.31;68.00;99982.78;4369733;32;32145;-83
2022/11/06 04:29:17;;;;;;;0.45;0.45;;;;;;;13.21;68.58;99981.50;4378313;32;33491;-82
2022/11/06 04:31:54;;;;;;;2.92;1.17;;;;;;;13.28;68.16;99983.78;4374311;32;33482;-83
2022/11/06 04:34:43;;;;;;;0.77;0.77;;;;;;;12.95;69.51;99988.97;4392094;32;34240;-83
2022/11/06 04:37:24;;;;;;;0.22;0.22;;;;;;;13.01;69.32;99986.03;4392768;32;34713;-83
2022/11/06 04:39:58;;;;;;;0.55;0.55;;;;;;;13.10;68.95;99978.53;4382678;32;33408;-83
2022/11/06 04:42:52;;;;;;;0.00;0.00;;;;;;;13.08;68.88;99987.44;4403291;32;33955;-83
2022/11/06 04:45:42;;;;;;;0.30;0.30;;;;;;;12.94;69.28;99976.66;4380310;32;33936;-83
2022/11/06 04:48:10;;;;;;;0.70;0.70;;;;;;;13.29;68.10;99984.63;4371163;32;34226;-83
2022/11/06 04:50:43;;;;;;;1.00;0.62;;;;;;;13.13;68.50;99987.19;4397606;32;32314;-83
2022/11/06 04:53:11;;;;;;;0.00;0.00;;;;;;;13.17;68.44;99988.75;4374164;32;34920;-83
2022/11/06 04:56:10;;;;;;;1.52;0.43;;;;;;;13.05;68.49;99992.91;4393961;32;33194;-83
2022/11/06 04:58:37;;;;;;;2.67;1.35;;;;;;;13.14;68.44;99991.56;4365384;32;33012;-82
2022/11/06 05:01:05;;;;;;;2.87;1.37;;;;;;;13.09;68.58;99985.63;4367608;32;32855;-82
2022/11/06 05:03:33;;;;;;;0.28;0.28;;;;;;;13.04;68.53;99996.47;4379236;32;34783;-82
2022/11/06 05:06:01;;;;;;;0.55;0.55;;;;;;;12.96;68.96;99992.47;4379802;32;34974;-82
2022/11/06 05:08:31;;;;;;;0.62;0.62;;;;;;;13.07;68.80;99991.00;4397364;32;33759;-82
2022/11/06 05:11:00;;;;;;;2.08;1.45;;;;;;;13.14;68.51;99988.03;4397659;32;33841;-82
2022/11/06 05:13:29;;;;;;;0.32;0.32;;;;;;;13.38;67.39;99988.59;4378572;32;33263;-82
2022/11/06 05:15:58;;;;;;;1.23;0.85;;;;;;;12.77;69.61;99992.53;4392327;32;34674;-82
2022/11/06 05:18:26;;;;;;;0.65;0.65;;;;;;;13.10;68.42;99989.12;4373967;32;33390;-82
2022/11/06 05:23:46;;;;;;;0.65;0.35;;;;;;;13.04;68.53;99995.59;4385020;32;33948;-82
2022/11/06 05:26:14;;;;;;;1.42;1.33;;;;;;;12.96;68.90;100006.63;4398640;32;33376;-82
2022/11/06 05:28:42;;;;;;;0.35;0.35;;;;;;;12.90;69.07;100004.25;4393098;32;34631;-82
2022/11/06 05:31:10;;;;;;;1.80;0.43;;;;;;;12.48;70.45;100008.06;4382308;32;32756;-82
2022/11/06 05:33:39;;;;;;;1.10;0.10;;;;;;;12.78;69.37;100004.88;4400452;32;34943;-83
2022/11/06 05:36:08;;;;;;;0.32;0.32;;;;;;;12.86;69.49;100010.63;4396529;32;33449;-82
2022/11/06 05:38:36;;;;;;;0.73;0.73;;;;;;;13.15;68.06;100009.19;4373515;32;34006;-82
2022/11/06 05:41:05;;;;;;;0.20;0.20;;;;;;;12.91;68.92;100021.00;4367927;32;32933;-82
2022/11/06 05:43:32;;;;;;;1.90;0.68;;;;;;;13.14;68.23;100017.22;4385484;32;33425;-82
2022/11/06 05:46:00;;;;;;;0.75;0.75;;;;;;;12.94;68.77;100016.41;4387077;32;35585;-83
2022/11/06 05:48:30;;;;;;;1.08;0.77;;;;;;;13.05;68.75;100023.81;4386417;32;34839;-83
2022/11/06 05:51:05;;;;;;;0.60;0.60;;;;;;;13.12;68.47;100024.41;4366744;32;32293;-82
2022/11/06 05:53:38;;;;;;;0.75;0.62;;;;;;;13.10;68.45;100026.25;4383611;32;33248;-82
2022/11/06 05:56:08;;;;;;;1.60;0.70;;;;;;;13.16;67.97;100033.91;4379357;32;32913;-82
2022/11/06 05:58:36;;;;;;;1.25;1.02;;;;;;;13.19;68.20;100031.09;4396978;32;33888;-82
2022/11/06 06:01:12;;;;;;;0.28;0.28;;;;;;;13.07;68.69;100040.53;4380886;32;33568;-82
2022/11/06 06:03:40;;;;;;;1.95;1.55;;;;;;;13.10;68.22;100042.16;4379583;32;32589;-81
2022/11/06 06:06:08;;;;;;;0.60;0.28;;;;;;;13.10;68.50;100047.44;4372214;32;32975;-82
2022/11/06 06:08:36;;;;;;;0.00;0.00;;;;;;;13.17;68.24;100054.19;4391758;32;33065;-82
2022/11/06 06:11:07;;;;;;;0.55;0.55;;;;;;;13.27;67.86;100060.75;4385210;32;32854;-82
2022/11/06 06:13:38;;;;;;;1.48;1.25;;;;;;;13.13;68.28;100063.22;4374684;32;32812;-83
2022/11/06 06:16:06;;;;;;;1.92;1.80;;;;;;;13.07;68.39;100059.94;4366115;32;34027;-82
2022/11/06 06:18:35;;;;;;;0.47;0.47;;;;;;;13.01;68.60;100062.06;4388347;32;34908;-84
2022/11/06 06:21:03;;;;;;;1.35;1.25;;;;;;;13.14;68.12;100064.94;4398427;32;33552;-82
2022/11/06 06:23:31;;;;;;;1.73;0.82;;;;;;;13.34;67.42;100064.84;4389160;32;33451;-83
2022/11/06 06:26:04;;;;;;;0.10;0.10;;;;;;;13.24;67.65;100061.75;4387734;32;33701;-83
2022/11/06 06:28:33;;;;;;;0.10;0.10;;;;;;;13.23;67.74;100061.84;4381752;32;34704;-82
2022/11/06 06:31:12;;;;;;;1.17;1.10;;;;;;;12.95;68.85;100065.84;4383506;32;34155;-82
2022/11/06 06:33:42;;;;;;;2.15;0.90;;;;;;;13.20;68.18;100075.25;4382321;32;33984;-82
2022/11/06 06:36:12;;;;;;;1.75;1.50;;;;;;;13.18;68.58;100074.44;4396094;32;33707;-82
2022/11/06 06:38:40;;;;;;;0.57;0.57;;;;;;;13.12;68.54;100080.06;4381335;32;33607;-82
2022/11/06 06:41:10;;;;;;;0.50;0.50;;;;;;;13.14;68.31;100087.00;4385097;32;33213;-82
2022/11/06 06:43:48;;;;;;;1.23;0.75;;;;;;;13.10;68.55;100084.56;4372260;32;33806;-82
2022/11/06 06:46:20;;;;;;;1.67;0.60;;;;;;;12.88;69.14;100098.03;4389708;32;32717;-82
2022/11/06 06:48:49;;;;;;;1.25;1.15;;;;;;;12.97;68.70;100101.09;4396140;32;34112;-84
2022/11/06 06:51:18;;;;;;;3.25;1.08;;;;;;;13.19;68.10;100100.88;4386602;32;34593;-83
2022/11/06 06:53:51;;;;;;;1.75;1.65;;;;;;;12.93;68.66;100110.12;4384059;32;34630;-82
2022/11/06 06:56:23;;;;;;;0.00;0.00;;;;;;;12.93;68.82;100110.12;4396921;32;33566;-82
2022/11/06 06:58:55;;;;;;;1.12;1.12;;;;;;;13.21;67.75;100104.34;4387168;32;33643;-83
2022/11/06 07:01:29;;;;;;;0.85;0.85;;;;;;;13.16;67.98;100110.81;4371559;32;32795;-82
2022/11/06 07:03:59;;;;;;;0.70;0.70;;;;;;;13.18;67.83;100115.06;4365187;32;33266;-83
2022/11/06 07:06:42;;;;;;;1.15;0.98;;;;;;;13.04;68.44;100113.09;4389478;32;34766;-82
2022/11/06 07:09:12;;;;;;;0.45;0.45;;;;;;;13.31;67.66;100116.22;4388478;32;32654;-83
2022/11/06 07:11:50;;;;;;;0.32;0.32;;;;;;;13.07;68.33;100112.97;4388701;32;31938;-82
2022/11/06 07:14:24;;;;;;;0.95;0.95;;;;;;;13.00;68.71;100118.63;4380371;32;35556;-83
2022/11/06 07:16:55;;;;;;;2.50;1.17;;;;;;;13.19;68.12;100123.88;4393940;32;33901;-83
2022/11/06 07:19:23;;;;;;;1.73;1.12;;;;;;;13.17;68.30;100123.13;4377705;32;33602;-83
2022/11/06 07:21:52;;;;;;;0.55;0.55;;;;;;;13.05;68.43;100124.56;4402719;32;33245;-83
2022/11/06 07:26:56;;;;;;;0.65;0.65;;;;;;;13.18;67.86;100125.69;4380421;32;33902;-82
2022/11/06 07:29:26;;;;;;;1.17;0.75;;;;;;;12.97;68.83;100124.94;4370997;32;34601;-83
2022/11/06 07:32:01;;;;;;;1.33;1.17;;;;;;;12.93;69.23;100123.38;4394421;32;33100;-83
2022/11/06 07:34:31;;;;;;;0.52;0.52;;;;;;;13.04;68.88;100136.09;4396440;32;33597;-82
2022/11/06 07:37:03;;;;;;;0.20;0.20;;;;;;;13.13;68.27;100126.84;4394885;32;33596;-82
2022/11/06 07:39:36;;;;;;;0.55;0.55;;;;;;;12.73;69.76;100134.09;4379428;32;34760;-82
2022/11/06 07:42:07;;;;;;;1.92;0.98;;;;;;;13.15;68.00;100136.47;4368517;32;32160;-83
2022/11/06 07:44:37;;;;;;;0.40;0.40;;;;;;;13.13;68.24;100132.16;4384833;32;33921;-82
2022/11/06 07:47:06;;;;;;;1.25;1.10;;;;;;;12.98;68.80;100139.06;4392541;32;33865;-83
2022/11/06 07:49:36;;;;;;;1.75;0.57;;;;;;;13.14;68.43;100142.66;4365337;32;33806;-82
2022/11/06 07:52:07;;;;;;;1.10;0.77;;;;;;;13.24;68.00;100138.66;4401538;32;33438;-82
2022/11/06 07:54:37;;;;;;;0.68;0.68;;;;;;;13.25;68.13;100142.19;4389032;32;33572;-83
2022/11/06 07:57:05;;;;;;;1.33;0.80;;;;;;;13.21;68.14;100136.16;4373129;32;33479;-81
2022/11/06 07:59:34;;;;;;;0.52;0.52;;;;;;;13.18;68.09;100141.59;4389305;32;33889;-83
2022/11/06 08:02:02;;;;;;;0.60;0.60;;;;;;;13.02;68.62;100146.78;4391925;32;33096;-85
2022/11/06 08:04:34;;;;;;;0.57;0.57;;;;;;;12.98;69.05;100139.06;4384512;32;32253;-84
2022/11/06 08:07:12;;;;;;;1.02;1.00;;;;;;;13.37;67.36;100144.22;4399708;32;34112;-85
2022/11/06 08:09:43;;;;;;;0.55;0.52;;;;;;;13.24;67.67;100141.31;4405268;32;33151;-84
2022/11/06 08:12:20;;;;;;;0.80;0.80;;;;;;;13.08;68.26;100138.53;4389532;32;34132;-85
2022/11/06 08:14:49;;;;;;;0.95;0.95;;;;;;;13.04;68.45;100139.63;4394225;32;32929;-89
2022/11/06 08:17:23;;;;;;;2.55;2.37;;;;;;;13.17;67.99;100144.31;4381875;32;33746;-91
2022/11/06 08:19:53;;;;;;;4.35;3.08;;;;;;;13.37;67.30;100138.06;4393494;32;32602;-90
2022/11/06 08:22:24;;;;;;;1.15;0.95;;;;;;;13.09;68.27;100142.03;4396559;32;32727;-90
2022/11/06 08:24:56;;;;;;;1.45;1.35;;;;;;;13.04;68.77;100144.06;4390963;32;33954;-88
2022/11/06 08:27:32;;;;;;;2.12;1.05;;;;;;;12.93;68.94;100147.22;4391513;32;34781;-89
2022/11/06 08:30:01;;;;;;;3.78;1.62;;;;;;;12.97;69.37;100148.81;4396665;32;33670;-90
2022/11/06 08:32:31;;;;;;;0.47;0.32;;;;;;;13.40;67.45;100149.41;4366190;32;32620;-90
2022/11/06 08:35:00;;;;;;;4.10;1.05;;;;;;;13.19;68.23;100148.59;4392608;32;34584;-89
2022/11/06 08:37:29;;;;;;;0.82;0.75;;;;;;;13.37;67.81;100146.03;4378981;32;33308;-90
2022/11/06 08:40:03;;;;;;;1.87;1.50;;;;;;;13.13;68.55;100151.56;4378524;32;33074;-89
2022/11/06 08:42:33;;;;;;;1.20;1.10;;;;;;;13.08;68.71;100151.78;4394618;32;32084;-91
2022/11/06 08:45:05;;;;;;;0.73;0.73;;;;;;;13.12;68.62;100143.69;4381294;32;33087;-89
2022/11/06 08:47:34;;;;;;;1.20;1.10;;;;;;;12.98;69.21;100145.22;4381112;32;34609;-89
2022/11/06 08:50:03;;;;;;;1.25;0.95;;;;;;;13.26;68.63;100141.25;4380962;32;33070;-89
2022/11/06 08:52:31;;;;;;;4.45;2.40;;;;;;;13.22;68.46;100143.19;4394997;32;32010;-88
2022/11/06 08:55:02;;;;;;;0.22;0.22;;;;;;;13.17;68.93;100144.31;4387374;32;33154;-88
2022/11/06 08:57:32;;;;;;;5.12;1.15;;;;;;;13.14;69.10;100144.47;4369167;32;33784;-88
2022/11/06 09:00:03;;;;;;;0.80;0.50;;;;;;;13.10;69.31;100145.53;4384980;32;32817;-88
2022/11/06 09:02:43;;;;;;;1.55;1.45;;;;;;;13.16;69.19;100155.87;4381754;32;33584;-89
2022/11/06 09:05:12;;;;;;;0.52;0.52;;;;;;;13.42;68.40;100146.66;4368448;32;32700;-90
2022/11/06 09:07:43;;;;;;;1.02;0.75;;;;;;;13.33;68.66;100147.97;4384157;32;33316;-89
2022/11/06 09:10:12;;;;;;;1.17;0.82;;;;;;;13.38;68.88;100143.28;4375389;32;33409;-89
2022/11/06 09:12:41;;;;;;;0.57;0.50;;;;;;;13.64;67.77;100136.69;4384073;32;32434;-89
2022/11/06 09:15:09;;;;;;;0.75;0.50;;;;;;;13.63;67.95;100137.62;4372048;32;33155;-89
2022/11/06 09:17:44;;;;;;;2.00;1.85;;;;;;;13.64;68.12;100133.19;4384827;32;32921;-89
2022/11/06 09:20:14;;;;;;;1.83;1.05;;;;;;;13.60;68.67;100131.63;4380331;32;32944;-90
2022/11/06 09:22:46;;;;;;;1.48;1.37;;;;;;;13.69;68.11;100131.16;4380440;32;33725;-90
2022/11/06 09:25:16;;;;;;;0.52;0.52;;;;;;;13.74;67.62;100129.97;4379772;32;32659;-89
2022/11/06 09:27:55;;;;;;;1.60;1.50;;;;;;;13.61;68.27;100125.37;4380924;32;33516;-89
2022/11/06 09:30:47;;;;;;;1.77;1.35;;;;;;;13.80;68.04;100123.47;4360813;32;32328;-94
2022/11/06 09:33:18;;;;;;;1.80;1.20;;;;;;;13.85;68.12;100129.41;4367136;32;32561;-92
2022/11/06 09:36:11;;;;;;;3.17;0.70;;;;;;;13.82;68.30;100130.44;4336458;33;33501;-84
2022/11/06 09:38:43;;;;;;;0.93;0.55;;;;;;;13.92;68.18;100127.31;4345446;33;33085;-83
2022/11/06 09:41:23;;;;;;;0.37;0.37;;;;;;;13.99;68.14;100118.06;4344427;33;33753;-83
2022/11/06 09:44:18;;;;;;;2.53;1.75;;;;;;;13.97;68.25;100120.81;4345591;33;33816;-82
2022/11/06 09:46:54;;;;;;;2.08;0.85;;;;;;;14.36;66.88;100116.97;4346164;33;33944;-83
2022/11/06 09:49:40;;;;;;;0.37;0.37;;;;;;;14.11;67.35;100125.41;4337998;33;33914;-88
2022/11/06 09:52:46;;;;;;;0.82;0.80;;;;;;;14.19;67.39;100122.31;4346066;33;32710;-85
2022/11/06 09:55:26;;;;;;;1.05;0.95;;;;;;;14.11;68.07;100121.87;4347057;33;33828;-86
2022/11/06 09:58:24;;;;;;;0.50;0.50;;;;;;;14.29;67.50;100120.88;4345090;32;32972;-85
2022/11/06 10:00:53;;;;;;;1.12;0.85;;;;;;;14.24;67.92;100122.94;4340246;32;33451;-86
2022/11/06 10:03:31;;;;;;;1.60;0.75;;;;;;;14.47;67.09;100119.88;4345219;33;34579;-87
2022/11/06 10:06:05;;;;;;;2.33;2.12;;;;;;;14.54;67.28;100126.62;4345417;32;32668;-84
2022/11/06 10:08:42;;;;;;;1.05;1.05;;;;;;;14.48;67.41;100116.34;4345760;33;34795;-85
2022/11/06 10:11:12;;;;;;;1.20;1.12;;;;;;;14.47;67.74;100114.56;4327896;33;33027;-85
2022/11/06 10:13:58;;;;;;;2.08;1.48;;;;;;;14.51;68.01;100105.53;4345846;33;32701;-83
2022/11/06 10:16:50;;;;;;;0.85;0.85;;;;;;;14.51;67.70;100108.19;4345938;33;32611;-85
2022/11/06 10:19:29;;;;;;;2.00;1.45;;;;;;;14.74;67.13;100095.44;4344879;33;33461;-84
2022/11/06 10:22:17;;;;;;;0.70;0.70;;;;;;;14.78;66.81;100102.28;4344961;33;33692;-83
2022/11/06 10:25:23;;;;;;;0.55;0.55;;;;;;;14.67;67.06;100100.25;4344824;32;33184;-83
2022/11/06 10:28:02;;;;;;;15.00;1.65;;;;;;;14.36;68.39;100101.03;4344304;33;33087;-83
2022/11/06 10:33:44;;;;;;;0.73;0.73;;;;;;;14.66;68.10;100108.28;4340492;33;34637;-84
2022/11/06 10:36:22;;;;;;;0.60;0.60;;;;;;;14.85;67.83;100100.97;4337928;33;32708;-83
2022/11/06 10:38:51;;;;;;;1.75;1.00;;;;;;;14.92;67.44;100097.06;4339255;33;33780;-83
2022/11/06 10:41:30;;;;;;;3.53;2.30;;;;;;;14.79;68.02;100099.53;4337732;33;32359;-84
2022/11/06 10:46:45;;;;;;;0.13;0.13;;;;;;;14.94;67.66;100095.16;4332457;33;33786;-84
2022/11/06 10:49:50;;;;;;;1.85;1.15;;;;;;;15.01;67.50;100093.88;4322693;33;34211;-83
2022/11/06 10:52:48;;;;;;;1.27;1.17;;;;;;;15.02;67.54;100089.41;4338729;33;34618;-84
2022/11/06 10:55:40;;;;;;;1.37;1.27;;;;;;;15.16;67.06;100085.94;4336280;33;33675;-83
2022/11/06 10:58:20;;;;;;;22.85;2.10;;;;;;;15.10;66.53;100082.69;4338457;33;32827;-84
2022/11/06 11:00:59;;;;;;;4.10;1.12;;;;;;;15.05;66.87;100079.44;4339586;33;32494;-84
2022/11/06 11:03:42;;;;;;;1.70;1.60;;;;;;;15.01;67.35;100071.75;4337237;33;33699;-84
2022/11/06 11:06:11;;;;;;;1.67;1.45;;;;;;;15.31;66.57;100066.41;4338306;33;34791;-84
2022/11/06 11:08:45;;;;;;;2.58;1.10;;;;;;;15.34;66.47;100071.56;4334866;33;32607;-84
2022/11/06 11:11:27;;;;;;;1.05;0.95;;;;;;;15.38;66.04;100073.06;4331527;33;32602;-83
2022/11/06 11:14:00;;;;;;;1.08;0.60;;;;;;;15.28;66.50;100067.44;4337176;33;34699;-85
2022/11/06 11:16:38;;;;;;;0.90;0.88;;;;;;;15.50;65.83;100068.84;4339078;33;33874;-84
2022/11/06 11:19:18;;;;;;;0.88;0.75;;;;;;;15.46;66.02;100062.84;4331012;33;33921;-84
2022/11/06 11:21:59;;;;;;;0.55;0.55;;;;;;;15.14;67.18;100066.53;4336504;33;33032;-84
2022/11/06 11:24:28;;;;;;;1.55;1.05;;;;;;;15.32;66.61;100065.47;4338074;32;33894;-84
2022/11/06 11:27:03;;;;;;;3.33;1.85;;;;;;;15.40;66.41;100068.53;4326610;33;34991;-83
2022/11/06 11:29:48;;;;;;;9.30;1.48;;;;;;;15.46;66.22;100068.16;4339883;33;33768;-84
2022/11/06 11:32:20;;;;;;;3.28;2.10;;;;;;;15.44;66.52;100064.75;4331852;33;32070;-85
2022/11/06 11:34:54;;;;;;;0.62;0.62;;;;;;;15.46;66.38;100067.31;4334517;33;33991;-84
2022/11/06 11:37:32;;;;;;;1.50;1.37;;;;;;;15.51;66.08;100067.91;4344386;33;34227;-84
2022/11/06 11:40:35;;;;;;;0.90;0.85;;;;;;;15.44;65.57;100069.22;4345547;33;33991;-84
2022/11/06 11:43:18;;;;;;;0.50;0.50;;;;;;;15.45;65.59;100070.94;4334685;33;32834;-84
2022/11/06 11:46:08;;;;;;;0.55;0.55;;;;;;;15.59;65.37;100066.50;4346675;33;34257;-84
2022/11/06 11:48:42;;;;;;;1.58;1.40;;;;;;;15.65;65.43;100067.09;4345225;33;33887;-84
2022/11/06 11:51:27;;;;;;;1.20;1.10;;;;;;;15.62;65.07;100068.97;4344638;33;34178;-84
2022/11/06 11:54:03;;;;;;;1.08;0.95;;;;;;;15.54;65.32;100065.91;4346264;33;33828;-84
2022/11/06 11:56:32;;;;;;;5.78;0.65;;;;;;;15.52;65.38;100057.16;4344964;33;33158;-85
2022/11/06 11:59:45;;;;;;;0.50;0.35;;;;;;;15.50;65.42;100064.37;4344235;33;33460;-85
2022/11/06 12:02:28;;;;;;;1.75;0.80;;;;;;;15.25;66.52;100066.78;4344642;33;34539;-84
2022/11/06 12:05:08;;;;;;;0.50;0.50;;;;;;;15.39;66.05;100061.50;4345152;33;34021;-85
2022/11/06 12:07:43;;;;;;;2.00;1.15;;;;;;;15.42;65.84;100060.47;4345746;33;33682;-85
2022/11/06 12:10:26;;;;;;;1.50;1.12;;;;;;;15.45;65.59;100061.13;4346851;33;33954;-84
2022/11/06 12:12:56;;;;;;;0.65;0.65;;;;;;;15.75;64.57;100060.25;4346101;32;34211;-84
2022/11/06 12:15:32;;;;;;;1.42;1.33;;;;;;;15.65;65.27;100064.44;4346543;33;33261;-84
2022/11/06 12:18:16;;;;;;;1.40;1.30;;;;;;;15.53;65.25;100066.00;4347006;33;35609;-85
2022/11/06 12:24:00;;;;;;;1.25;1.15;;;;;;;15.44;65.47;100059.44;4347955;33;33599;-85
2022/11/06 12:26:32;;;;;;;0.75;0.75;;;;;;;15.86;63.92;100060.50;4345914;33;32202;-84
2022/11/06 12:29:10;;;;;;;1.30;1.20;;;;;;;15.62;64.76;100065.47;4346201;33;34200;-84